sensor_id;sensor_type;location;lat;lon;timestamp;pressure;altitude;pressure_sealevel;temperature;humidity
58843;BME280;44614;54.356;10.100;2023-02-19T00:00:58;101195.38;;;2.03;100.00
58843;BME280;44614;54.356;10.100;2023-02-19T00:03:25;101193.81;;;2.00;100.00
58843;BME280;44614;54.356;10.100;2023-02-19T00:05:50;101191.78;;;2.02;100.00
58843;BME280;44614;54.356;10.100;2023-02-19T00:08:15;101200.91;;;2.01;100.00
58843;BME280;44614;54.356;10.100;2023-02-19T00:10:41;101207.19;;;2.02;100.00
58843;BME280;44614;54.356;10.100;2023-02-19T00:13:06;101205.25;;;1.94;100.00
58843;BME280;44614;54.356;10.100;2023-02-19T00:15:32;101176.06;;;1.80;100.00
58843;BME280;44614;54.356;10.100;2023-02-19T00:17:57;101214.47;;;2.01;100.00
58843;BME280;44614;54.356;10.100;2023-02-19T00:20:23;101213.94;;;1.98;100.00
58843;BME280;44614;54.356;10.100;2023-02-19T00:22:48;101213.44;;;2.02;100.00
58843;BME280;44614;54.356;10.100;2023-02-19T00:25:14;101222.59;;;2.01;100.00
58843;BME280;44614;54.356;10.100;2023-02-19T00:27:39;101217.16;;;2.01;100.00
58843;BME280;44614;54.356;10.100;2023-02-19T00:30:04;101216.16;;;2.02;100.00
58843;BME280;44614;54.356;10.100;2023-02-19T00:32:30;101216.16;;;2.02;100.00
58843;BME280;44614;54.356;10.100;2023-02-19T00:34:55;101226.84;;;2.04;100.00
58843;BME280;44614;54.356;10.100;2023-02-19T00:37:20;101228.72;;;2.03;100.00
58843;BME280;44614;54.356;10.100;2023-02-19T00:39:46;101229.38;;;2.05;100.00
58843;BME280;44614;54.356;10.100;2023-02-19T00:42:11;101231.13;;;2.06;100.00
58843;BME280;44614;54.356;10.100;2023-02-19T00:44:37;101225.69;;;2.06;100.00
58843;BME280;44614;54.356;10.100;2023-02-19T00:47:03;101227.53;;;2.06;100.00
58843;BME280;44614;54.356;10.100;2023-02-19T00:49:28;101231.13;;;2.06;100.00
58843;BME280;44614;54.356;10.100;2023-02-19T00:51:53;101236.53;;;2.06;100.00
58843;BME280;44614;54.356;10.100;2023-02-19T00:54:19;101234.66;;;2.07;100.00
58843;BME280;44614;54.356;10.100;2023-02-19T00:56:46;101238.22;;;2.07;100.00
58843;BME280;44614;54.356;10.100;2023-02-19T00:59:12;101207.78;;;1.87;100.00
58843;BME280;44614;54.356;10.100;2023-02-19T01:01:37;101238.91;;;2.09;100.00
58843;BME280;44614;54.356;10.100;2023-02-19T01:04:03;101237.03;;;2.10;100.00
58843;BME280;44614;54.356;10.100;2023-02-19T01:06:28;101239.59;;;2.11;100.00
58843;BME280;44614;54.356;10.100;2023-02-19T01:08:54;101231.78;;;2.08;100.00
58843;BME280;44614;54.356;10.100;2023-02-19T01:11:20;101237.91;;;2.10;100.00
58843;BME280;44614;54.356;10.100;2023-02-19T01:13:45;101236.91;;;2.11;100.00
58843;BME280;44614;54.356;10.100;2023-02-19T01:16:18;101237.91;;;2.10;100.00
58843;BME280;44614;54.356;10.100;2023-02-19T01:18:44;101234.66;;;2.07;100.00
58843;BME280;44614;54.356;10.100;2023-02-19T01:21:21;101216.09;;;1.94;100.00
58843;BME280;44614;54.356;10.100;2023-02-19T01:23:48;101243.34;;;2.10;100.00
58843;BME280;44614;54.356;10.100;2023-02-19T01:26:16;101209.84;;;1.93;100.00
58843;BME280;44614;54.356;10.100;2023-02-19T01:28:42;101234.19;;;2.11;100.00
58843;BME280;44614;54.356;10.100;2023-02-19T01:31:12;101241.47;;;2.11;100.00
58843;BME280;44614;54.356;10.100;2023-02-19T01:33:37;101238.75;;;2.11;100.00
58843;BME280;44614;54.356;10.100;2023-02-19T01:36:03;101240.44;;;2.12;100.00
58843;BME280;44614;54.356;10.100;2023-02-19T01:38:29;101247.72;;;2.11;100.00
58843;BME280;44614;54.356;10.100;2023-02-19T01:40:56;101248.41;;;2.13;100.00
58843;BME280;44614;54.356;10.100;2023-02-19T01:43:21;101247.56;;;2.13;100.00
58843;BME280;44614;54.356;10.100;2023-02-19T01:45:47;101222.34;;;1.94;100.00
58843;BME280;44614;54.356;10.100;2023-02-19T01:50:46;101242.78;;;2.07;100.00
58843;BME280;44614;54.356;10.100;2023-02-19T01:53:17;101227.88;;;2.03;100.00
58843;BME280;44614;54.356;10.100;2023-02-19T01:55:45;101245.03;;;2.11;100.00
58843;BME280;44614;54.356;10.100;2023-02-19T01:58:13;101235.88;;;2.12;100.00
58843;BME280;44614;54.356;10.100;2023-02-19T02:00:39;101233.34;;;2.11;100.00
58843;BME280;44614;54.356;10.100;2023-02-19T02:03:05;101235.88;;;2.12;100.00
58843;BME280;44614;54.356;10.100;2023-02-19T02:05:44;101233.16;;;2.12;100.00
58843;BME280;44614;54.356;10.100;2023-02-19T02:08:13;101235.75;;;2.14;100.00
58843;BME280;44614;54.356;10.100;2023-02-19T02:10:57;101239.28;;;2.14;100.00
58843;BME280;44614;54.356;10.100;2023-02-19T02:13:23;101221.19;;;2.15;100.00
58843;BME280;44614;54.356;10.100;2023-02-19T02:24:38;101212.19;;;2.14;100.00
58843;BME280;44614;54.356;10.100;2023-02-19T02:27:27;101205.22;;;2.12;100.00
58843;BME280;44614;54.356;10.100;2023-02-19T02:35:46;101201.69;;;2.11;100.00
58843;BME280;44614;54.356;10.100;2023-02-19T02:38:14;101194.69;;;2.09;100.00
58843;BME280;44614;54.356;10.100;2023-02-19T02:40:43;101204.88;;;2.07;100.00
58843;BME280;44614;54.356;10.100;2023-02-19T02:43:09;101201.75;;;2.02;100.00
58843;BME280;44614;54.356;10.100;2023-02-19T02:45:34;101201.63;;;2.03;100.00
58843;BME280;44614;54.356;10.100;2023-02-19T02:48:27;101210.59;;;2.04;100.00
58843;BME280;44614;54.356;10.100;2023-02-19T02:51:15;101201.22;;;1.98;100.00
58843;BME280;44614;54.356;10.100;2023-02-19T02:56:34;101219.50;;;1.96;100.00
58843;BME280;44614;54.356;10.100;2023-02-19T02:59:01;101222.22;;;1.96;100.00
58843;BME280;44614;54.356;10.100;2023-02-19T03:01:36;101219.81;;;1.93;100.00
58843;BME280;44614;54.356;10.100;2023-02-19T03:04:29;101213.88;;;1.89;100.00
58843;BME280;44614;54.356;10.100;2023-02-19T03:06:56;101217.59;;;1.88;100.00
58843;BME280;44614;54.356;10.100;2023-02-19T03:09:33;101213.50;;;1.84;100.00
58843;BME280;44614;54.356;10.100;2023-02-19T03:12:06;101215.91;;;1.87;100.00
58843;BME280;44614;54.356;10.100;2023-02-19T03:14:54;101224.16;;;1.86;100.00
58843;BME280;44614;54.356;10.100;2023-02-19T03:17:47;101226.19;;;1.84;100.00
58843;BME280;44614;54.356;10.100;2023-02-19T03:20:33;101232.75;;;1.81;100.00
58843;BME280;44614;54.356;10.100;2023-02-19T03:23:00;101229.22;;;1.81;100.00
58843;BME280;44614;54.356;10.100;2023-02-19T03:25:31;101241.91;;;1.80;100.00
58843;BME280;44614;54.356;10.100;2023-02-19T03:28:18;101211.28;;;1.62;100.00
58843;BME280;44614;54.356;10.100;2023-02-19T03:31:07;101241.19;;;1.78;100.00
58843;BME280;44614;54.356;10.100;2023-02-19T03:33:34;101244.91;;;1.77;100.00
58843;BME280;44614;54.356;10.100;2023-02-19T03:36:03;101252.19;;;1.77;100.00
58843;BME280;44614;54.356;10.100;2023-02-19T03:38:51;101255.03;;;1.75;100.00
58843;BME280;44614;54.356;10.100;2023-02-19T03:41:22;101253.50;;;1.73;100.00
58843;BME280;44614;54.356;10.100;2023-02-19T03:44:12;101255.50;;;1.70;100.00
58843;BME280;44614;54.356;10.100;2023-02-19T03:46:50;101248.25;;;1.71;100.00
58843;BME280;44614;54.356;10.100;2023-02-19T03:49:34;101252.97;;;1.69;100.00
58843;BME280;44614;54.356;10.100;2023-02-19T03:57:21;101276.09;;;1.63;100.00
58843;BME280;44614;54.356;10.100;2023-02-19T03:59:55;101273.72;;;1.60;100.00
58843;BME280;44614;54.356;10.100;2023-02-19T04:02:32;101281.28;;;1.57;100.00
58843;BME280;44614;54.356;10.100;2023-02-19T04:05:13;101284.28;;;1.54;100.00
58843;BME280;44614;54.356;10.100;2023-02-19T04:07:44;101281.03;;;1.50;100.00
58843;BME280;44614;54.356;10.100;2023-02-19T04:10:11;101287.78;;;1.46;100.00
58843;BME280;44614;54.356;10.100;2023-02-19T04:12:39;101286.69;;;1.39;100.00
58843;BME280;44614;54.356;10.100;2023-02-19T04:15:09;101282.09;;;1.39;100.00
58843;BME280;44614;54.356;10.100;2023-02-19T04:17:44;101295.94;;;1.36;100.00
58843;BME280;44614;54.356;10.100;2023-02-19T04:20:11;101303.50;;;1.33;100.00
58843;BME280;44614;54.356;10.100;2023-02-19T04:22:38;101311.78;;;1.31;100.00
58843;BME280;44614;54.356;10.100;2023-02-19T04:25:04;101309.22;;;1.30;100.00
58843;BME280;44614;54.356;10.100;2023-02-19T04:27:29;101321.91;;;1.29;100.00
58843;BME280;44614;54.356;10.100;2023-02-19T04:29:55;101311.25;;;1.28;100.00
58843;BME280;44614;54.356;10.100;2023-02-19T04:32:20;101311.69;;;1.23;100.00
58843;BME280;44614;54.356;10.100;2023-02-19T04:34:45;101324.78;;;1.28;100.00
58843;BME280;44614;54.356;10.100;2023-02-19T04:37:11;101323.19;;;1.25;100.00
58843;BME280;44614;54.356;10.100;2023-02-19T04:39:36;101339.16;;;1.28;100.00
58843;BME280;44614;54.356;10.100;2023-02-19T04:42:02;101326.19;;;1.22;100.00
58843;BME280;44614;54.356;10.100;2023-02-19T04:44:28;101356.69;;;1.24;100.00
58843;BME280;44614;54.356;10.100;2023-02-19T04:46:54;101330.34;;;1.26;100.00
58843;BME280;44614;54.356;10.100;2023-02-19T04:49:19;101334.88;;;1.26;100.00
58843;BME280;44614;54.356;10.100;2023-02-19T04:51:44;101335.03;;;1.24;100.00
58843;BME280;44614;54.356;10.100;2023-02-19T04:54:10;101342.16;;;1.25;100.00
58843;BME280;44614;54.356;10.100;2023-02-19T04:56:35;101336.06;;;1.23;100.00
58843;BME280;44614;54.356;10.100;2023-02-19T04:59:00;101337.75;;;1.24;100.00
58843;BME280;44614;54.356;10.100;2023-02-19T05:01:25;101337.91;;;1.23;100.00
58843;BME280;44614;54.356;10.100;2023-02-19T05:03:51;101331.78;;;1.20;100.00
58843;BME280;44614;54.356;10.100;2023-02-19T05:06:17;101340.91;;;1.19;100.00
58843;BME280;44614;54.356;10.100;2023-02-19T05:08:42;101342.91;;;1.17;100.00
58843;BME280;44614;54.356;10.100;2023-02-19T05:11:09;101340.34;;;1.16;100.00
58843;BME280;44614;54.356;10.100;2023-02-19T05:13:35;101347.75;;;1.14;100.00
58843;BME280;44614;54.356;10.100;2023-02-19T05:16:07;101346.34;;;1.10;100.00
58843;BME280;44614;54.356;10.100;2023-02-19T05:18:34;101350.34;;;1.06;100.00
58843;BME280;44614;54.356;10.100;2023-02-19T05:21:00;101359.47;;;1.05;100.00
58843;BME280;44614;54.356;10.100;2023-02-19T05:23:26;101364.03;;;1.04;100.00
58843;BME280;44614;54.356;10.100;2023-02-19T05:25:52;101366.31;;;0.99;100.00
58843;BME280;44614;54.356;10.100;2023-02-19T05:28:18;101362.19;;;0.95;100.00
58843;BME280;44614;54.356;10.100;2023-02-19T05:30:47;101366.38;;;0.89;100.00
58843;BME280;44614;54.356;10.100;2023-02-19T05:33:13;101365.66;;;0.87;100.00
58843;BME280;44614;54.356;10.100;2023-02-19T05:35:42;101375.31;;;0.90;100.00
58843;BME280;44614;54.356;10.100;2023-02-19T05:38:08;101369.91;;;0.90;100.00
58843;BME280;44614;54.356;10.100;2023-02-19T05:40:34;101350.91;;;0.72;100.00
58843;BME280;44614;54.356;10.100;2023-02-19T05:42:59;101379.72;;;0.91;100.00
58843;BME280;44614;54.356;10.100;2023-02-19T05:45:25;101390.53;;;0.91;100.00
58843;BME280;44614;54.356;10.100;2023-02-19T05:47:50;101379.47;;;0.84;100.00
58843;BME280;44614;54.356;10.100;2023-02-19T05:50:15;101393.28;;;0.81;100.00
58843;BME280;44614;54.356;10.100;2023-02-19T05:52:41;101404.66;;;0.85;100.00
58843;BME280;44614;54.356;10.100;2023-02-19T05:55:08;101416.63;;;0.82;100.00
58843;BME280;44614;54.356;10.100;2023-02-19T05:57:41;101394.88;;;0.64;100.00
58843;BME280;44614;54.356;10.100;2023-02-19T06:00:12;101420.91;;;0.75;100.00
58843;BME280;44614;54.356;10.100;2023-02-19T06:02:38;101418.78;;;0.69;100.00
58843;BME280;44614;54.356;10.100;2023-02-19T06:05:05;101427.16;;;0.76;100.00
58843;BME280;44614;54.356;10.100;2023-02-19T06:07:31;101430.88;;;0.75;100.00
58843;BME280;44614;54.356;10.100;2023-02-19T06:09:56;101426.59;;;0.72;100.00
58843;BME280;44614;54.356;10.100;2023-02-19T06:12:22;101439.97;;;0.73;100.00
58843;BME280;44614;54.356;10.100;2023-02-19T06:14:47;101404.16;;;0.52;100.00
58843;BME280;44614;54.356;10.100;2023-02-19T06:17:13;101435.53;;;0.72;100.00
58843;BME280;44614;54.356;10.100;2023-02-19T06:19:38;101449.06;;;0.72;100.00
58843;BME280;44614;54.356;10.100;2023-02-19T06:22:03;101449.06;;;0.72;100.00
58843;BME280;44614;54.356;10.100;2023-02-19T06:24:29;101453.34;;;0.75;100.00
58843;BME280;44614;54.356;10.100;2023-02-19T06:26:54;101464.03;;;0.77;100.00
58843;BME280;44614;54.356;10.100;2023-02-19T06:29:20;101443.81;;;0.71;100.00
58843;BME280;44614;54.356;10.100;2023-02-19T06:31:45;101461.31;;;0.77;100.00
58843;BME280;44614;54.356;10.100;2023-02-19T06:34:10;101456.78;;;0.77;100.00
58843;BME280;44614;54.356;10.100;2023-02-19T06:36:36;101460.31;;;0.78;100.00
58843;BME280;44614;54.356;10.100;2023-02-19T06:39:03;101466.56;;;0.78;100.00
58843;BME280;44614;54.356;10.100;2023-02-19T06:41:28;101478.41;;;0.77;100.00
58843;BME280;44614;54.356;10.100;2023-02-19T06:43:56;101473.41;;;0.72;100.00
58843;BME280;44614;54.356;10.100;2023-02-19T06:46:21;101486.63;;;0.76;100.00
58843;BME280;44614;54.356;10.100;2023-02-19T06:48:46;101499.88;;;0.79;100.00
58843;BME280;44614;54.356;10.100;2023-02-19T06:51:16;101495.31;;;0.79;100.00
58843;BME280;44614;54.356;10.100;2023-02-19T06:53:51;101511.53;;;0.79;100.00
58843;BME280;44614;54.356;10.100;2023-02-19T06:56:25;101504.28;;;0.80;100.00
58843;BME280;44614;54.356;10.100;2023-02-19T06:58:52;101481.38;;;0.64;100.00
58843;BME280;44614;54.356;10.100;2023-02-19T07:01:17;101514.13;;;0.81;100.00
58843;BME280;44614;54.356;10.100;2023-02-19T07:03:43;101525.91;;;0.80;100.00
58843;BME280;44614;54.356;10.100;2023-02-19T07:06:08;101529.50;;;0.80;100.00
58843;BME280;44614;54.356;10.100;2023-02-19T07:08:33;101526.63;;;0.82;100.00
58843;BME280;44614;54.356;10.100;2023-02-19T07:10:58;101530.34;;;0.81;100.00
58843;BME280;44614;54.356;10.100;2023-02-19T07:13:24;101549.09;;;0.82;100.00
58843;BME280;44614;54.356;10.100;2023-02-19T07:16:07;101544.72;;;0.81;100.00
58843;BME280;44614;54.356;10.100;2023-02-19T07:18:33;101538.84;;;0.76;100.00
58843;BME280;44614;54.356;10.100;2023-02-19T07:21:10;101560.78;;;0.83;100.00
58843;BME280;44614;54.356;10.100;2023-02-19T07:23:36;101559.78;;;0.84;100.00
58843;BME280;44614;54.356;10.100;2023-02-19T07:26:01;101564.91;;;0.87;100.00
58843;BME280;44614;54.356;10.100;2023-02-19T07:28:27;101556.78;;;0.87;100.00
58843;BME280;44614;54.356;10.100;2023-02-19T07:30:52;101564.78;;;0.88;100.00
58843;BME280;44614;54.356;10.100;2023-02-19T07:33:17;101571.88;;;0.89;100.00
58843;BME280;44614;54.356;10.100;2023-02-19T07:35:49;101582.84;;;0.88;100.00
58843;BME280;44614;54.356;10.100;2023-02-19T07:38:16;101588.69;;;0.93;100.00
58843;BME280;44614;54.356;10.100;2023-02-19T07:40:41;101595.50;;;0.97;100.00
58843;BME280;44614;54.356;10.100;2023-02-19T07:43:07;101600.50;;;1.02;100.00
58843;BME280;44614;54.356;10.100;2023-02-19T07:45:32;101602.19;;;1.03;100.00
58843;BME280;44614;54.356;10.100;2023-02-19T07:47:57;101612.59;;;1.07;100.00
58843;BME280;44614;54.356;10.100;2023-02-19T07:50:23;101606.03;;;1.10;100.00
58843;BME280;44614;54.356;10.100;2023-02-19T07:52:48;101611.00;;;1.14;100.00
58843;BME280;44614;54.356;10.100;2023-02-19T07:55:13;101617.00;;;1.18;100.00
58843;BME280;44614;54.356;10.100;2023-02-19T07:57:39;101608.03;;;1.17;100.00
58843;BME280;44614;54.356;10.100;2023-02-19T08:00:04;101617.16;;;1.26;100.00
58843;BME280;44614;54.356;10.100;2023-02-19T08:02:30;101622.41;;;1.28;100.00
58843;BME280;44614;54.356;10.100;2023-02-19T08:05:14;101626.38;;;1.33;100.00
58843;BME280;44614;54.356;10.100;2023-02-19T08:07:39;101617.97;;;1.36;100.00
58843;BME280;44614;54.356;10.100;2023-02-19T08:10:05;101614.00;;;1.40;100.00
58843;BME280;44614;54.356;10.100;2023-02-19T08:12:59;101607.31;;;1.35;100.00
58843;BME280;44614;54.356;10.100;2023-02-19T08:15:45;101618.69;;;1.48;100.00
58843;BME280;44614;54.356;10.100;2023-02-19T08:18:11;101615.00;;;1.49;100.00
58843;BME280;44614;54.356;10.100;2023-02-19T08:20:37;101615.41;;;1.54;100.00
58843;BME280;44614;54.356;10.100;2023-02-19T08:23:03;101614.09;;;1.58;100.00
58843;BME280;44614;54.356;10.100;2023-02-19T08:25:28;101619.09;;;1.63;100.00
58843;BME280;44614;54.356;10.100;2023-02-19T08:27:54;101615.97;;;1.58;100.00
58843;BME280;44614;54.356;10.100;2023-02-19T08:30:20;101634.59;;;1.70;100.00
58843;BME280;44614;54.356;10.100;2023-02-19T08:32:45;101642.28;;;1.75;100.00
58843;BME280;44614;54.356;10.100;2023-02-19T08:35:11;101648.13;;;1.80;100.00
58843;BME280;44614;54.356;10.100;2023-02-19T08:37:36;101652.38;;;1.83;100.00
58843;BME280;44614;54.356;10.100;2023-02-19T08:40:01;101645.25;;;1.82;100.00
58843;BME280;44614;54.356;10.100;2023-02-19T08:42:28;101657.94;;;1.91;100.00
58843;BME280;44614;54.356;10.100;2023-02-19T08:44:53;101660.34;;;1.94;100.00
58843;BME280;44614;54.356;10.100;2023-02-19T08:47:18;101664.47;;;1.98;100.00
58843;BME280;44614;54.356;10.100;2023-02-19T08:49:44;101675.72;;;2.03;100.00
58843;BME280;44614;54.356;10.100;2023-02-19T08:52:09;101676.13;;;2.08;100.00
58843;BME280;44614;54.356;10.100;2023-02-19T08:54:34;101683.97;;;2.11;100.00
58843;BME280;44614;54.356;10.100;2023-02-19T08:57:00;101693.34;;;2.17;100.00
58843;BME280;44614;54.356;10.100;2023-02-19T08:59:27;101684.81;;;2.22;100.00
58843;BME280;44614;54.356;10.100;2023-02-19T09:01:53;101705.03;;;2.27;100.00
58843;BME280;44614;54.356;10.100;2023-02-19T09:04:18;101703.72;;;2.31;100.00
58843;BME280;44614;54.356;10.100;2023-02-19T09:06:43;101694.75;;;2.31;100.00
58843;BME280;44614;54.356;10.100;2023-02-19T09:09:09;101704.13;;;2.36;100.00
58843;BME280;44614;54.356;10.100;2023-02-19T09:11:37;101715.22;;;2.43;100.00
58843;BME280;44614;54.356;10.100;2023-02-19T09:14:03;101711.94;;;2.49;100.00
58843;BME280;44614;54.356;10.100;2023-02-19T09:16:31;101714.34;;;2.52;100.00
58843;BME280;44614;54.356;10.100;2023-02-19T09:18:57;101721.88;;;2.58;100.00
58843;BME280;44614;54.356;10.100;2023-02-19T09:21:22;101717.84;;;2.62;100.00
58843;BME280;44614;54.356;10.100;2023-02-19T09:23:47;101719.59;;;2.63;100.00
58843;BME280;44614;54.356;10.100;2023-02-19T09:26:13;101732.53;;;2.69;100.00
58843;BME280;44614;54.356;10.100;2023-02-19T09:28:38;101732.25;;;2.73;100.00
58843;BME280;44614;54.356;10.100;2023-02-19T09:31:07;101730.22;;;2.75;100.00
58843;BME280;44614;54.356;10.100;2023-02-19T09:33:33;101726.34;;;2.77;100.00
58843;BME280;44614;54.356;10.100;2023-02-19T09:35:58;101729.63;;;2.81;100.00
58843;BME280;44614;54.356;10.100;2023-02-19T09:38:25;101699.31;;;2.67;100.00
58843;BME280;44614;54.356;10.100;2023-02-19T09:40:50;101717.00;;;2.89;100.00
58843;BME280;44614;54.356;10.100;2023-02-19T09:43:19;101725.56;;;2.95;100.00
58843;BME280;44614;54.356;10.100;2023-02-19T09:45:45;101724.38;;;2.97;100.00
58843;BME280;44614;54.356;10.100;2023-02-19T09:48:11;101732.66;;;3.05;100.00
58843;BME280;44614;54.356;10.100;2023-02-19T09:50:39;101737.91;;;3.07;100.00
58843;BME280;44614;54.356;10.100;2023-02-19T09:53:14;101739.47;;;3.09;100.00
58843;BME280;44614;54.356;10.100;2023-02-19T09:55:42;101738.28;;;3.12;100.00
58843;BME280;44614;54.356;10.100;2023-02-19T09:58:29;101758.69;;;3.16;100.00
58843;BME280;44614;54.356;10.100;2023-02-19T10:00:59;101780.28;;;3.17;100.00
58843;BME280;44614;54.356;10.100;2023-02-19T10:05:58;101788.22;;;3.29;100.00
58843;BME280;44614;54.356;10.100;2023-02-19T10:08:24;101796.19;;;3.30;100.00
58843;BME280;44614;54.356;10.100;2023-02-19T10:10:49;101791.91;;;3.28;100.00
58843;BME280;44614;54.356;10.100;2023-02-19T10:13:40;101799.16;;;3.37;99.55
58843;BME280;44614;54.356;10.100;2023-02-19T10:16:11;101808.72;;;3.41;99.31
58843;BME280;44614;54.356;10.100;2023-02-19T10:18:41;101818.09;;;3.47;98.38
58843;BME280;44614;54.356;10.100;2023-02-19T10:21:14;101829.91;;;3.55;100.00
58843;BME280;44614;54.356;10.100;2023-02-19T10:23:42;101830.31;;;3.60;99.73
58843;BME280;44614;54.356;10.100;2023-02-19T10:26:08;101826.72;;;3.60;99.32
58843;BME280;44614;54.356;10.100;2023-02-19T10:28:34;101821.97;;;3.62;97.59
58843;BME280;44614;54.356;10.100;2023-02-19T10:31:03;101830.38;;;3.69;95.39
58843;BME280;44614;54.356;10.100;2023-02-19T10:33:29;101828.03;;;3.74;97.43
58843;BME280;44614;54.356;10.100;2023-02-19T10:36:19;101828.75;;;3.76;97.70
58843;BME280;44614;54.356;10.100;2023-02-19T10:38:46;101823.03;;;3.79;98.57
58843;BME280;44614;54.356;10.100;2023-02-19T10:41:17;101832.50;;;3.75;97.44
58843;BME280;44614;54.356;10.100;2023-02-19T10:44:08;101852.75;;;3.80;95.24
58843;BME280;44614;54.356;10.100;2023-02-19T10:46:47;101811.59;;;3.57;96.51
58843;BME280;44614;54.356;10.100;2023-02-19T10:49:24;101855.31;;;3.82;95.22
58843;BME280;44614;54.356;10.100;2023-02-19T10:51:53;101837.75;;;3.76;95.60
58843;BME280;44614;54.356;10.100;2023-02-19T10:54:24;101836.53;;;3.88;95.06
58843;BME280;44614;54.356;10.100;2023-02-19T10:56:51;101854.09;;;3.94;94.12
58843;BME280;44614;54.356;10.100;2023-02-19T10:59:27;101866.06;;;4.01;93.97
58843;BME280;44614;54.356;10.100;2023-02-19T11:04:24;101856.56;;;4.05;93.97
58843;BME280;44614;54.356;10.100;2023-02-19T11:06:50;101859.66;;;4.10;92.24
58843;BME280;44614;54.356;10.100;2023-02-19T11:09:34;101823.16;;;3.95;92.24
58843;BME280;44614;54.356;10.100;2023-02-19T11:12:01;101866.19;;;4.18;88.42
58843;BME280;44614;54.356;10.100;2023-02-19T11:14:31;101863.84;;;4.23;87.36
58843;BME280;44614;54.356;10.100;2023-02-19T11:16:59;101858.81;;;4.28;88.10
58843;BME280;44614;54.356;10.100;2023-02-19T11:19:38;101845.22;;;4.28;87.12
58843;BME280;44614;54.356;10.100;2023-02-19T11:24:54;101850.59;;;4.46;85.73
58843;BME280;44614;54.356;10.100;2023-02-19T11:27:22;101869.03;;;4.52;87.32
58843;BME280;44614;54.356;10.100;2023-02-19T11:29:48;101864.75;;;4.49;85.50
58843;BME280;44614;54.356;10.100;2023-02-19T11:34:46;101882.19;;;4.64;87.30
58843;BME280;44614;54.356;10.100;2023-02-19T11:37:13;101880.88;;;4.69;84.52
58843;BME280;44614;54.356;10.100;2023-02-19T11:39:42;101882.44;;;4.71;84.02
58843;BME280;44614;54.356;10.100;2023-02-19T11:47:52;101871.81;;;4.86;82.90
58843;BME280;44614;54.356;10.100;2023-02-19T11:50:26;101864.31;;;4.88;81.79
58843;BME280;44614;54.356;10.100;2023-02-19T11:53:02;101869.44;;;4.91;84.08
58843;BME280;44614;54.356;10.100;2023-02-19T12:20:43;101886.69;;;5.34;80.94
58843;BME280;44614;54.356;10.100;2023-02-19T12:39:50;101885.47;;;5.62;79.83
58843;BME280;44614;54.356;10.100;2023-02-19T12:45:00;101877.50;;;5.77;82.64
58843;BME280;44614;54.356;10.100;2023-02-19T12:47:38;101867.50;;;6.02;81.82
58843;BME280;44614;54.356;10.100;2023-02-19T12:50:20;101869.25;;;6.28;83.60
58843;BME280;44614;54.356;10.100;2023-02-19T12:53:11;101862.06;;;6.59;84.21
58843;BME280;44614;54.356;10.100;2023-02-19T12:55:42;101846.00;;;6.89;82.65
58843;BME280;44614;54.356;10.100;2023-02-19T12:58:23;101854.44;;;7.19;82.96
58843;BME280;44614;54.356;10.100;2023-02-19T13:00:52;101844.63;;;7.41;72.26
58843;BME280;44614;54.356;10.100;2023-02-19T13:03:42;101830.09;;;7.40;73.92
58843;BME280;44614;54.356;10.100;2023-02-19T13:07:02;101828.97;;;7.57;73.05
58843;BME280;44614;54.356;10.100;2023-02-19T13:09:11;101830.91;;;7.80;79.24
58843;BME280;44614;54.356;10.100;2023-02-19T13:11:44;101836.09;;;7.98;82.72
58843;BME280;44614;54.356;10.100;2023-02-19T13:17:18;101842.06;;;8.47;78.94
58843;BME280;44614;54.356;10.100;2023-02-19T13:19:47;101844.91;;;8.69;79.91
58843;BME280;44614;54.356;10.100;2023-02-19T13:22:33;101847.41;;;8.78;78.27
58843;BME280;44614;54.356;10.100;2023-02-19T13:25:21;101850.97;;;8.79;69.83
58843;BME280;44614;54.356;10.100;2023-02-19T13:27:56;101852.41;;;8.75;75.43
58843;BME280;44614;54.356;10.100;2023-02-19T13:33:36;101839.72;;;8.59;72.07
58843;BME280;44614;54.356;10.100;2023-02-19T13:36:11;101843.38;;;8.51;72.81
58843;BME280;44614;54.356;10.100;2023-02-19T13:38:41;101821.09;;;8.40;76.77
58843;BME280;44614;54.356;10.100;2023-02-19T13:41:17;101846.78;;;8.30;67.50
58843;BME280;44614;54.356;10.100;2023-02-19T13:43:43;101852.25;;;8.30;74.73
58843;BME280;44614;54.356;10.100;2023-02-19T13:46:14;101829.75;;;8.20;78.41
58843;BME280;44614;54.356;10.100;2023-02-19T13:48:41;101825.34;;;8.34;78.22
58843;BME280;44614;54.356;10.100;2023-02-19T14:14:41;101854.69;;;8.02;74.87
58843;BME280;44614;54.356;10.100;2023-02-19T14:25:38;101817.09;;;7.73;73.79
58843;BME280;44614;54.356;10.100;2023-02-19T14:28:21;101819.78;;;7.81;77.85
58843;BME280;44614;54.356;10.100;2023-02-19T14:33:45;101788.84;;;7.81;77.25
58843;BME280;44614;54.356;10.100;2023-02-19T14:39:11;101798.81;;;7.74;70.05
58843;BME280;44614;54.356;10.100;2023-02-19T14:41:39;101789.88;;;7.57;76.17
58843;BME280;44614;54.356;10.100;2023-02-19T14:44:12;101783.84;;;7.62;76.46
58843;BME280;44614;54.356;10.100;2023-02-19T14:46:50;101771.63;;;7.49;75.04
58843;BME280;44614;54.356;10.100;2023-02-19T14:52:05;101806.34;;;7.72;76.96
58843;BME280;44614;54.356;10.100;2023-02-19T14:57:02;101813.53;;;7.42;76.69
58843;BME280;44614;54.356;10.100;2023-02-19T14:59:29;101814.16;;;7.13;77.75
58843;BME280;44614;54.356;10.100;2023-02-19T15:02:11;101825.16;;;6.96;77.86
58843;BME280;44614;54.356;10.100;2023-02-19T15:04:37;101824.84;;;6.83;78.34
58843;BME280;44614;54.356;10.100;2023-02-19T15:07:09;101824.88;;;6.67;77.75
58843;BME280;44614;54.356;10.100;2023-02-19T15:09:40;101822.69;;;6.54;78.22